createdAt,value
2019-03-31T00:00:32.961Z,66.94
2019-03-31T00:03:00.875Z,67.53
2019-03-31T00:05:28.860Z,68.95
2019-03-31T00:07:56.742Z,68.64
2019-03-31T00:10:24.602Z,68.29
2019-03-31T00:12:52.505Z,68.53
2019-03-31T00:15:20.342Z,67.15
2019-03-31T00:17:48.280Z,67.04
2019-03-31T00:20:16.168Z,68.43
2019-03-31T00:22:44.051Z,69.21
2019-03-31T00:25:11.944Z,69.38
2019-03-31T00:27:39.803Z,70.21
2019-03-31T00:30:08.442Z,69.45
2019-03-31T00:32:36.360Z,68.86
2019-03-31T00:35:04.704Z,68.35
2019-03-31T00:37:32.592Z,68.24
2019-03-31T00:40:00.470Z,69.22
2019-03-31T00:42:28.355Z,71.37
2019-03-31T00:44:56.241Z,70.59
2019-03-31T00:47:24.144Z,69.05
2019-03-31T00:49:52.020Z,69.94
2019-03-31T00:52:19.923Z,70.17
2019-03-31T00:54:47.801Z,70.08
2019-03-31T00:57:15.660Z,71.36
2019-03-31T00:59:43.562Z,70.96
2019-03-31T01:02:15.106Z,68.94
2019-03-31T01:04:43.101Z,69.00
2019-03-31T01:07:11.201Z,68.72
2019-03-31T01:09:39.149Z,67.66
2019-03-31T01:12:07.043Z,67.39
2019-03-31T01:14:35.394Z,69.15
2019-03-31T01:17:04.041Z,69.13
2019-03-31T01:19:32.480Z,69.49
2019-03-31T01:22:02.622Z,69.12
2019-03-31T01:24:30.551Z,69.57
2019-03-31T01:26:58.421Z,69.33
2019-03-31T01:29:26.347Z,68.61
2019-03-31T01:31:55.523Z,68.24
2019-03-31T01:34:23.965Z,68.62
2019-03-31T01:36:52.140Z,68.63
2019-03-31T01:39:21.281Z,69.30
2019-03-31T01:41:49.141Z,69.14
2019-03-31T01:44:17.137Z,68.79
2019-03-31T01:46:45.159Z,68.44
2019-03-31T01:49:13.041Z,70.16
2019-03-31T01:51:41.301Z,69.79
2019-03-31T01:54:09.189Z,68.84
2019-03-31T01:56:37.060Z,67.69
2019-03-31T01:59:04.961Z,69.13
2019-03-31T02:01:32.945Z,69.14
2019-03-31T02:04:00.878Z,68.37
2019-03-31T02:06:28.780Z,67.50
2019-03-31T02:08:56.664Z,67.85
2019-03-31T02:11:24.560Z,68.60
2019-03-31T02:13:52.399Z,68.82
2019-03-31T02:16:20.271Z,68.58
2019-03-31T02:18:48.106Z,68.83
2019-03-31T02:21:15.946Z,69.45
2019-03-31T02:23:43.802Z,69.97
2019-03-31T02:26:11.640Z,70.12
2019-03-31T02:28:39.518Z,69.80
2019-03-31T02:31:07.401Z,71.48
2019-03-31T02:33:35.269Z,70.71
2019-03-31T02:36:03.154Z,69.53
2019-03-31T02:38:31.046Z,70.36
2019-03-31T02:40:59.067Z,70.67
2019-03-31T02:43:26.956Z,69.66
2019-03-31T02:45:54.853Z,69.70
2019-03-31T02:48:22.740Z,71.40
2019-03-31T02:50:51.205Z,72.15
2019-03-31T02:53:19.709Z,70.93
2019-03-31T02:55:47.784Z,71.53
2019-03-31T02:58:18.279Z,72.26
2019-03-31T03:00:46.342Z,71.78
2019-03-31T03:03:15.715Z,70.58
2019-03-31T03:05:44.988Z,69.50
2019-03-31T03:08:13.376Z,71.74
2019-03-31T03:10:43.028Z,76.31
2019-03-31T03:13:13.617Z,75.25
2019-03-31T03:16:10.148Z,76.44
2019-03-31T03:18:37.986Z,73.71
2019-03-31T03:21:05.842Z,74.99
2019-03-31T03:23:33.718Z,75.34
2019-03-31T03:26:01.757Z,76.09
2019-03-31T03:28:29.845Z,75.07
2019-03-31T03:30:58.257Z,73.36
2019-03-31T03:33:26.731Z,73.60
2019-03-31T03:35:54.961Z,73.17
2019-03-31T03:38:23.139Z,76.94
2019-03-31T03:40:51.416Z,74.92
2019-03-31T03:43:19.491Z,72.33
2019-03-31T03:45:47.814Z,73.04
2019-03-31T03:48:15.888Z,73.65
2019-03-31T03:50:43.771Z,72.66
2019-03-31T03:53:11.596Z,72.68
2019-03-31T03:55:39.857Z,74.45
2019-03-31T03:58:08.013Z,77.21
2019-03-31T04:00:36.346Z,74.46
2019-03-31T04:03:04.633Z,75.51
2019-03-31T04:05:32.759Z,75.38
2019-03-31T04:08:00.620Z,76.27
2019-03-31T04:11:11.882Z,77.79
2019-03-31T04:13:39.730Z,77.24
2019-03-31T04:16:07.598Z,77.00
2019-03-31T04:18:35.461Z,75.62
2019-03-31T04:21:03.381Z,75.64
2019-03-31T04:23:31.220Z,74.68
2019-03-31T04:25:59.100Z,73.56
2019-03-31T04:28:27.351Z,72.84
2019-03-31T04:30:55.197Z,73.83
2019-03-31T04:33:23.099Z,73.29
2019-03-31T04:35:50.975Z,74.59
2019-03-31T04:38:18.875Z,73.86
2019-03-31T04:40:46.797Z,74.00
2019-03-31T04:43:14.606Z,77.56
2019-03-31T04:45:42.461Z,76.16
2019-03-31T04:48:10.359Z,77.04
2019-03-31T04:50:38.210Z,78.35
2019-03-31T04:53:06.090Z,78.85
2019-03-31T04:55:34.055Z,78.33
2019-03-31T04:58:02.227Z,76.37
2019-03-31T05:00:30.075Z,77.39
2019-03-31T05:02:57.978Z,78.16
2019-03-31T05:05:25.855Z,76.63
2019-03-31T05:07:53.725Z,77.19
2019-03-31T05:10:21.636Z,76.46
2019-03-31T05:12:49.555Z,75.88
2019-03-31T05:15:17.395Z,74.44
2019-03-31T05:17:45.375Z,74.85
2019-03-31T05:20:13.275Z,76.70
2019-03-31T05:22:41.135Z,78.41
2019-03-31T05:25:09.035Z,76.35
2019-03-31T05:27:36.894Z,76.59
2019-03-31T05:30:05.027Z,76.43
2019-03-31T05:32:32.956Z,78.78
2019-03-31T05:35:00.875Z,76.67
2019-03-31T05:37:28.757Z,75.21
2019-03-31T05:39:56.695Z,74.94
2019-03-31T05:42:24.550Z,75.36
2019-03-31T05:44:52.429Z,77.09
2019-03-31T05:47:20.515Z,76.87
2019-03-31T05:49:48.379Z,76.25
2019-03-31T05:52:16.234Z,74.69
2019-03-31T05:54:44.098Z,74.00
2019-03-31T05:57:11.977Z,74.01
2019-03-31T05:59:39.875Z,73.75
2019-03-31T06:02:07.809Z,73.65
2019-03-31T06:04:35.654Z,73.01
2019-03-31T06:07:03.560Z,75.29
2019-03-31T06:09:31.435Z,76.56
2019-03-31T06:11:59.313Z,74.56
2019-03-31T06:14:27.219Z,73.87
2019-03-31T06:16:55.077Z,73.99
2019-03-31T06:19:23.032Z,73.65
2019-03-31T06:21:50.958Z,73.53
2019-03-31T06:24:18.877Z,74.83
2019-03-31T06:26:46.799Z,73.82
2019-03-31T06:29:14.666Z,74.95
2019-03-31T06:31:42.561Z,76.54
2019-03-31T06:34:10.458Z,75.45
2019-03-31T06:36:38.346Z,77.45
2019-03-31T06:39:06.935Z,77.80
2019-03-31T06:41:35.005Z,78.09
2019-03-31T06:44:02.935Z,78.02
2019-03-31T06:46:30.809Z,76.10
2019-03-31T06:48:58.676Z,76.26
2019-03-31T06:51:26.585Z,78.36
2019-03-31T06:53:54.456Z,76.97
2019-03-31T06:56:22.375Z,77.22
2019-03-31T06:58:50.218Z,77.33
2019-03-31T07:01:18.467Z,75.99
2019-03-31T07:03:46.374Z,74.76
2019-03-31T07:06:14.243Z,74.87
2019-03-31T07:08:42.095Z,75.51
2019-03-31T07:11:09.993Z,74.20
2019-03-31T07:13:37.847Z,74.08
2019-03-31T07:16:05.953Z,73.85
2019-03-31T07:18:33.853Z,74.19
2019-03-31T07:21:01.690Z,74.49
2019-03-31T07:23:29.902Z,74.78
2019-03-31T07:25:58.295Z,72.87
2019-03-31T07:28:26.576Z,73.41
2019-03-31T07:30:54.730Z,72.82
2019-03-31T07:33:22.594Z,72.40
2019-03-31T07:35:50.487Z,70.67
2019-03-31T07:38:18.638Z,71.78
2019-03-31T07:40:46.855Z,71.55
2019-03-31T07:43:15.005Z,71.29
2019-03-31T07:45:43.259Z,70.55
2019-03-31T07:48:11.133Z,69.61
2019-03-31T07:50:38.997Z,69.23
2019-03-31T07:53:06.835Z,70.19
2019-03-31T07:55:34.775Z,65.35
2019-03-31T07:58:02.738Z,68.18
2019-03-31T08:00:30.702Z,67.30
2019-03-31T08:03:00.266Z,65.79
2019-03-31T08:05:33.446Z,64.06
2019-03-31T08:07:58.158Z,65.39
2019-03-31T08:10:25.997Z,63.21
2019-03-31T08:12:53.906Z,63.91
2019-03-31T08:15:27.777Z,63.79
2019-03-31T08:17:55.679Z,63.52
2019-03-31T08:20:23.654Z,64.24
2019-03-31T08:22:51.515Z,63.00
2019-03-31T08:25:19.578Z,61.93
2019-03-31T08:27:47.440Z,61.33
2019-03-31T08:30:17.260Z,62.50
2019-03-31T08:32:45.170Z,60.29
2019-03-31T08:35:14.134Z,62.06
2019-03-31T08:37:42.023Z,61.25
2019-03-31T08:40:12.701Z,59.97
2019-03-31T08:42:40.651Z,58.95
2019-03-31T08:45:09.001Z,57.88
2019-03-31T08:47:37.187Z,58.20
2019-03-31T08:50:05.344Z,57.64
2019-03-31T08:52:33.288Z,56.45
2019-03-31T08:55:01.218Z,58.54
2019-03-31T08:57:29.332Z,55.79
2019-03-31T08:59:57.442Z,55.55
2019-03-31T09:02:31.174Z,55.13
2019-03-31T09:04:59.174Z,54.56
2019-03-31T09:07:27.038Z,53.46
2019-03-31T09:09:54.965Z,52.36
2019-03-31T09:12:22.836Z,52.24
2019-03-31T09:14:50.702Z,52.62
2019-03-31T09:17:18.615Z,51.91
2019-03-31T09:19:46.535Z,51.03
2019-03-31T09:22:14.492Z,51.19
2019-03-31T09:24:42.418Z,49.50
2019-03-31T09:27:10.304Z,50.62
2019-03-31T09:29:38.280Z,49.30
2019-03-31T09:32:06.171Z,49.72
2019-03-31T09:34:34.158Z,50.49
2019-03-31T09:37:03.536Z,49.31
2019-03-31T09:39:31.390Z,49.90
2019-03-31T09:41:59.298Z,49.12
2019-03-31T09:44:30.181Z,47.84
2019-03-31T09:46:57.094Z,46.85
2019-03-31T09:49:25.080Z,47.90
2019-03-31T09:51:52.955Z,46.12
2019-03-31T09:54:20.903Z,45.34
2019-03-31T09:56:48.834Z,46.05
2019-03-31T09:59:16.799Z,45.42
2019-03-31T10:01:44.722Z,46.78
2019-03-31T10:04:12.854Z,46.37
2019-03-31T10:06:40.809Z,47.13
2019-03-31T10:09:08.755Z,46.18
2019-03-31T10:11:36.916Z,45.89
2019-03-31T10:14:04.880Z,46.32
2019-03-31T10:16:32.800Z,46.28
2019-03-31T10:19:00.816Z,47.67
2019-03-31T10:21:28.715Z,48.63
2019-03-31T10:23:56.577Z,47.44
2019-03-31T10:26:31.891Z,48.05
2019-03-31T10:28:54.340Z,47.20
2019-03-31T10:31:22.315Z,47.96
2019-03-31T10:33:50.190Z,50.14
2019-03-31T10:36:18.168Z,48.62
2019-03-31T10:38:46.114Z,48.43
2019-03-31T10:41:14.115Z,48.37
2019-03-31T10:43:42.115Z,49.03
2019-03-31T10:46:10.179Z,48.45
2019-03-31T10:48:38.093Z,49.25
2019-03-31T10:51:06.250Z,48.09
2019-03-31T10:53:34.576Z,48.60
2019-03-31T10:56:02.492Z,48.91
2019-03-31T10:58:30.341Z,47.86
2019-03-31T11:00:58.461Z,47.49
2019-03-31T11:03:26.396Z,45.66
2019-03-31T11:05:54.354Z,46.36
2019-03-31T11:08:22.360Z,44.74
2019-03-31T11:10:50.297Z,45.50
2019-03-31T11:13:18.222Z,46.24
2019-03-31T11:15:46.137Z,45.58
2019-03-31T11:18:14.194Z,46.64
2019-03-31T11:20:42.038Z,43.32
2019-03-31T11:23:20.716Z,45.14
2019-03-31T11:25:48.635Z,42.40
2019-03-31T11:28:16.520Z,40.90
2019-03-31T11:30:44.462Z,41.90
2019-03-31T11:33:12.457Z,40.31
2019-03-31T11:35:40.374Z,40.82
2019-03-31T11:38:08.348Z,42.39
2019-03-31T11:40:36.305Z,41.89
2019-03-31T11:43:04.435Z,41.96
2019-03-31T11:45:32.554Z,40.09
2019-03-31T11:48:00.456Z,39.44
2019-03-31T11:50:28.455Z,39.75
2019-03-31T11:52:56.420Z,40.34
2019-03-31T11:55:24.352Z,38.63
2019-03-31T11:57:52.363Z,39.75
2019-03-31T12:00:21.124Z,37.68
2019-03-31T12:02:49.402Z,38.97
2019-03-31T12:05:17.624Z,37.96
2019-03-31T12:07:47.299Z,37.13
2019-03-31T12:10:15.801Z,39.98
2019-03-31T12:12:43.691Z,37.98
2019-03-31T12:15:12.239Z,38.63
2019-03-31T12:17:40.197Z,39.17
2019-03-31T12:20:08.585Z,37.52
2019-03-31T12:22:36.738Z,38.80
2019-03-31T12:25:05.439Z,38.39
2019-03-31T12:27:33.400Z,38.52
2019-03-31T12:30:01.368Z,39.01
2019-03-31T12:32:29.501Z,37.88
2019-03-31T12:34:57.505Z,37.74
2019-03-31T12:37:25.459Z,38.50
2019-03-31T12:39:53.409Z,37.38
2019-03-31T12:42:21.429Z,37.40
2019-03-31T12:44:49.526Z,37.23
2019-03-31T12:47:17.652Z,38.60
2019-03-31T12:49:45.795Z,37.26
2019-03-31T12:52:13.829Z,37.35
2019-03-31T12:54:41.851Z,37.74
2019-03-31T12:57:09.823Z,36.65
2019-03-31T12:59:37.853Z,36.85
2019-03-31T13:02:06.026Z,37.38
2019-03-31T13:04:33.981Z,36.50
2019-03-31T13:07:01.975Z,36.31
2019-03-31T13:09:31.377Z,36.76
2019-03-31T13:11:59.520Z,36.19
2019-03-31T13:14:27.674Z,36.00
2019-03-31T13:16:55.996Z,36.38
2019-03-31T13:19:24.248Z,36.78
2019-03-31T13:21:52.560Z,36.14
2019-03-31T13:24:20.635Z,35.66
2019-03-31T13:26:48.681Z,36.56
2019-03-31T13:29:16.675Z,35.53
2019-03-31T13:31:44.795Z,34.44
2019-03-31T13:34:12.784Z,35.31
2019-03-31T13:36:40.774Z,34.51
2019-03-31T13:39:08.772Z,35.20
2019-03-31T13:41:36.798Z,34.43
2019-03-31T13:44:04.740Z,35.18
2019-03-31T13:46:32.712Z,36.05
2019-03-31T13:49:00.757Z,34.35
2019-03-31T13:51:28.750Z,34.30
2019-03-31T13:53:57.981Z,33.72
2019-03-31T13:56:26.536Z,33.79
2019-03-31T13:58:55.132Z,34.11
2019-03-31T14:01:23.164Z,34.99
2019-03-31T14:03:51.107Z,33.33
2019-03-31T14:06:19.168Z,33.54
2019-03-31T14:08:47.760Z,32.58
2019-03-31T14:11:15.837Z,33.20
2019-03-31T14:13:43.804Z,34.21
2019-03-31T14:16:11.972Z,33.51
2019-03-31T14:18:40.785Z,34.67
2019-03-31T14:21:09.133Z,34.91
2019-03-31T14:23:37.664Z,33.75
2019-03-31T14:26:06.053Z,33.55
2019-03-31T14:28:34.415Z,35.13
2019-03-31T14:31:02.636Z,34.01
2019-03-31T14:33:31.346Z,34.24
2019-03-31T14:35:59.571Z,32.09
2019-03-31T14:38:39.604Z,33.31
2019-03-31T14:40:58.280Z,33.28
2019-03-31T14:43:28.156Z,32.93
2019-03-31T14:45:56.563Z,33.98
2019-03-31T14:48:24.798Z,34.29
2019-03-31T14:50:53.023Z,33.16
2019-03-31T14:53:21.249Z,33.87
2019-03-31T14:55:49.408Z,34.57
2019-03-31T14:58:17.679Z,33.12
2019-03-31T15:00:46.123Z,34.24
2019-03-31T15:03:14.237Z,34.26
2019-03-31T15:05:42.436Z,35.13
2019-03-31T15:08:10.640Z,34.42
2019-03-31T15:10:38.834Z,35.75
2019-03-31T15:13:07.094Z,34.00
2019-03-31T15:15:35.381Z,32.88
2019-03-31T15:18:03.968Z,34.01
2019-03-31T15:20:32.384Z,34.61
2019-03-31T15:23:00.944Z,34.73
2019-03-31T15:25:29.279Z,35.20
2019-03-31T15:27:57.568Z,35.77
2019-03-31T15:30:26.044Z,34.91
2019-03-31T15:32:54.363Z,35.47
2019-03-31T15:35:22.800Z,36.48
2019-03-31T15:37:52.025Z,35.27
2019-03-31T15:40:20.556Z,36.10
2019-03-31T15:42:48.965Z,35.62
2019-03-31T15:45:17.396Z,35.32
2019-03-31T15:47:45.863Z,36.23
2019-03-31T15:50:14.440Z,37.04
2019-03-31T15:52:42.931Z,36.81
2019-03-31T15:55:12.513Z,37.34
2019-03-31T15:57:41.001Z,37.52
2019-03-31T16:00:09.835Z,38.15
2019-03-31T16:02:38.534Z,37.15
2019-03-31T16:05:08.273Z,38.44
2019-03-31T16:07:36.556Z,38.33
2019-03-31T16:10:05.055Z,37.76
2019-03-31T16:12:32.702Z,38.90
2019-03-31T16:15:00.457Z,38.90
2019-03-31T16:17:28.299Z,38.84
2019-03-31T16:19:56.298Z,39.27
2019-03-31T16:22:24.076Z,40.16
2019-03-31T16:24:54.392Z,39.53
2019-03-31T16:27:22.181Z,39.65
2019-03-31T16:29:49.809Z,39.35
2019-03-31T16:32:17.473Z,40.13
2019-03-31T16:34:45.474Z,40.76
2019-03-31T16:37:13.416Z,40.09
2019-03-31T16:39:41.175Z,41.56
2019-03-31T16:42:09.102Z,41.51
2019-03-31T16:44:36.950Z,41.98
2019-03-31T16:47:05.754Z,40.67
2019-03-31T16:49:33.760Z,41.72
2019-03-31T16:52:01.530Z,40.80
2019-03-31T16:54:29.443Z,41.78
2019-03-31T16:56:57.552Z,42.36
2019-03-31T16:59:25.492Z,42.00
2019-03-31T17:01:53.337Z,42.96
2019-03-31T17:04:21.292Z,44.34
2019-03-31T17:06:49.323Z,43.63
2019-03-31T17:09:17.215Z,44.29
2019-03-31T17:11:45.042Z,43.61
2019-03-31T17:14:12.970Z,45.30
2019-03-31T17:16:41.003Z,44.44
2019-03-31T17:19:09.011Z,45.68
2019-03-31T17:21:36.992Z,45.88
2019-03-31T17:24:04.991Z,44.93
2019-03-31T17:26:32.918Z,45.38
2019-03-31T17:29:00.688Z,44.39
2019-03-31T17:31:28.780Z,43.96
2019-03-31T17:33:57.172Z,45.99
2019-03-31T17:36:25.122Z,46.52
2019-03-31T17:38:53.140Z,45.56
2019-03-31T17:41:21.082Z,45.33
2019-03-31T17:43:48.996Z,45.25
2019-03-31T17:46:16.981Z,46.17
2019-03-31T17:48:45.099Z,45.41
2019-03-31T17:51:12.992Z,46.57
2019-03-31T17:53:40.901Z,46.47
2019-03-31T17:56:08.851Z,45.73
2019-03-31T17:58:38.162Z,45.38
2019-03-31T18:01:06.181Z,45.63
2019-03-31T18:03:33.955Z,48.01
2019-03-31T18:06:01.901Z,49.29
2019-03-31T18:08:29.910Z,49.52
2019-03-31T18:10:57.871Z,48.41
2019-03-31T18:13:25.801Z,47.87
2019-03-31T18:15:53.690Z,48.27
2019-03-31T18:18:21.656Z,48.74
2019-03-31T18:20:50.188Z,49.79
2019-03-31T18:23:18.070Z,51.81
2019-03-31T18:25:46.260Z,50.52
2019-03-31T18:28:14.124Z,51.59
2019-03-31T18:30:42.068Z,51.67
2019-03-31T18:33:10.157Z,51.51
2019-03-31T18:35:37.986Z,51.80
2019-03-31T18:38:06.673Z,52.22
2019-03-31T18:40:35.681Z,51.54
2019-03-31T18:43:04.284Z,51.48
2019-03-31T18:45:32.343Z,51.58
2019-03-31T18:48:01.262Z,52.20
2019-03-31T18:50:29.743Z,51.97
2019-03-31T18:52:58.300Z,51.20
2019-03-31T18:55:41.845Z,52.22
2019-03-31T18:58:14.320Z,52.59
2019-03-31T19:00:57.825Z,53.30
2019-03-31T19:03:44.028Z,53.64
2019-03-31T19:06:31.520Z,54.14
2019-03-31T19:09:25.346Z,55.03
2019-03-31T19:12:01.730Z,53.56
2019-03-31T19:14:52.532Z,53.73
2019-03-31T19:17:49.163Z,53.79
2019-03-31T19:20:40.873Z,53.07
2019-03-31T19:23:25.594Z,54.02
2019-03-31T19:26:08.850Z,56.21
2019-03-31T19:28:54.605Z,55.77
2019-03-31T19:31:53.727Z,56.42
2019-03-31T19:34:30.915Z,54.40
2019-03-31T19:37:25.316Z,55.91
2019-03-31T19:40:10.335Z,55.84
2019-03-31T19:42:45.558Z,55.60
2019-03-31T19:45:23.404Z,55.87
2019-03-31T19:48:13.739Z,56.01
2019-03-31T19:50:59.812Z,57.19
2019-03-31T19:53:46.089Z,56.24
2019-03-31T19:56:30.633Z,54.34
2019-03-31T19:59:26.966Z,55.59
2019-03-31T20:02:32.970Z,56.08
2019-03-31T20:05:19.161Z,55.87
2019-03-31T20:08:12.552Z,56.14
2019-03-31T20:10:46.541Z,57.58
2019-03-31T20:13:29.558Z,58.29
2019-03-31T20:16:20.016Z,58.79
2019-03-31T20:19:15.159Z,56.93
2019-03-31T20:22:04.741Z,57.57
2019-03-31T20:24:46.461Z,58.26
2019-03-31T20:27:42.388Z,57.99
2019-03-31T20:30:35.403Z,58.57
2019-03-31T20:33:21.180Z,59.07
2019-03-31T20:36:08.472Z,57.65
2019-03-31T20:39:01.601Z,59.43
2019-03-31T20:41:40.971Z,57.90
2019-03-31T20:44:08.756Z,57.90
2019-03-31T20:46:36.755Z,57.83
2019-03-31T20:49:04.525Z,57.99
2019-03-31T20:51:32.483Z,58.01
2019-03-31T20:54:00.294Z,59.40
2019-03-31T20:56:29.356Z,57.96
2019-03-31T20:58:57.516Z,58.81
2019-03-31T21:01:26.056Z,58.90
2019-03-31T21:03:53.674Z,58.92
2019-03-31T21:06:21.479Z,60.62
2019-03-31T21:08:49.175Z,60.54
2019-03-31T21:11:17.097Z,60.33
2019-03-31T21:13:44.755Z,62.52
2019-03-31T21:16:12.295Z,61.52
2019-03-31T21:18:39.799Z,60.72
2019-03-31T21:21:07.235Z,62.30
2019-03-31T21:23:34.695Z,62.27
2019-03-31T21:26:02.116Z,61.42
2019-03-31T21:28:29.508Z,62.05
2019-03-31T21:30:56.957Z,60.92
2019-03-31T21:33:24.562Z,61.93
2019-03-31T21:35:53.783Z,62.95
2019-03-31T21:38:21.178Z,62.62
2019-03-31T21:40:48.545Z,63.00
2019-03-31T21:43:15.874Z,62.78
2019-03-31T21:45:44.215Z,63.60
2019-03-31T21:48:11.576Z,63.32
2019-03-31T21:50:38.894Z,62.97
2019-03-31T21:53:06.275Z,61.66
2019-03-31T21:55:33.975Z,62.39
2019-03-31T21:58:01.702Z,62.23
2019-03-31T22:00:47.722Z,63.65
2019-03-31T22:03:15.063Z,63.50
2019-03-31T22:05:42.474Z,63.88
2019-03-31T22:08:09.795Z,62.55
2019-03-31T22:10:37.115Z,62.24
2019-03-31T22:13:04.477Z,62.96
2019-03-31T22:15:31.790Z,64.20
2019-03-31T22:17:59.161Z,65.28
2019-03-31T22:20:26.480Z,64.37
2019-03-31T22:22:53.892Z,63.61
2019-03-31T22:25:21.261Z,63.59
2019-03-31T22:27:48.574Z,63.93
2019-03-31T22:30:15.934Z,64.57
2019-03-31T22:32:43.275Z,63.82
2019-03-31T22:35:10.587Z,63.78
2019-03-31T22:37:37.916Z,63.18
2019-03-31T22:40:05.579Z,63.17
2019-03-31T22:42:32.932Z,63.08
2019-03-31T22:45:00.380Z,64.46
2019-03-31T22:47:27.774Z,64.95
2019-03-31T22:49:55.111Z,66.10
2019-03-31T22:52:22.434Z,65.22
2019-03-31T22:54:49.796Z,65.69
2019-03-31T22:57:17.118Z,64.84
2019-03-31T22:59:44.456Z,65.08
2019-03-31T23:02:11.778Z,66.14
2019-03-31T23:04:39.075Z,66.29
2019-03-31T23:07:06.414Z,65.74
2019-03-31T23:09:34.523Z,65.53
2019-03-31T23:12:02.167Z,65.95
2019-03-31T23:14:29.580Z,65.52
2019-03-31T23:16:56.864Z,64.73
2019-03-31T23:19:24.194Z,66.29
2019-03-31T23:21:51.598Z,66.69
2019-03-31T23:24:18.895Z,66.91
2019-03-31T23:26:46.234Z,66.75
2019-03-31T23:29:13.555Z,66.93
2019-03-31T23:31:40.915Z,66.30
2019-03-31T23:34:08.235Z,65.56
2019-03-31T23:36:36.675Z,65.07
2019-03-31T23:39:06.029Z,66.73
2019-03-31T23:41:33.375Z,68.97
2019-03-31T23:44:00.769Z,69.36
2019-03-31T23:46:28.136Z,68.76
2019-03-31T23:48:55.455Z,68.20
2019-03-31T23:51:22.814Z,68.53
2019-03-31T23:53:50.115Z,67.85
2019-03-31T23:56:17.493Z,69.96
2019-03-31T23:58:44.815Z,69.42
